createdAt,value
2023-05-03T00:00:23.247Z,6.09
2023-05-03T00:02:54.070Z,6.05
2023-05-03T00:05:22.157Z,6.03
2023-05-03T00:07:50.069Z,6.00
2023-05-03T00:10:18.327Z,5.96
2023-05-03T00:12:46.232Z,5.91
2023-05-03T00:15:16.714Z,5.86
2023-05-03T00:17:44.633Z,5.81
2023-05-03T00:20:15.569Z,5.64
2023-05-03T00:22:43.386Z,5.50
2023-05-03T00:25:11.380Z,5.53
2023-05-03T00:27:39.614Z,5.62
2023-05-03T00:30:09.636Z,5.57
2023-05-03T00:32:37.700Z,5.51
2023-05-03T00:35:06.912Z,5.47
2023-05-03T00:37:37.635Z,5.41
2023-05-03T00:40:07.526Z,5.37
2023-05-03T00:42:36.651Z,5.25
2023-05-03T00:45:06.191Z,5.32
2023-05-03T00:47:34.839Z,5.29
2023-05-03T00:50:03.127Z,5.27
2023-05-03T00:52:31.261Z,5.23
2023-05-03T00:55:01.668Z,5.06
2023-05-03T00:57:30.725Z,5.21
2023-05-03T00:59:59.116Z,5.18
2023-05-03T01:02:28.372Z,5.16
2023-05-03T01:04:56.892Z,5.09
2023-05-03T01:07:36.830Z,5.11
2023-05-03T01:10:19.372Z,5.10
2023-05-03T01:12:56.982Z,4.98
2023-05-03T01:15:37.976Z,5.07
2023-05-03T01:18:12.585Z,5.03
2023-05-03T01:20:44.774Z,5.04
2023-05-03T01:23:20.791Z,5.04
2023-05-03T01:25:53.157Z,5.05
2023-05-03T01:28:21.573Z,5.07
2023-05-03T01:30:52.850Z,5.07
2023-05-03T01:33:32.366Z,5.08
2023-05-03T01:36:08.002Z,5.07
2023-05-03T01:38:38.618Z,5.01
2023-05-03T01:41:12.785Z,5.07
2023-05-03T01:43:41.923Z,4.79
2023-05-03T01:46:09.818Z,4.59
2023-05-03T01:48:37.670Z,5.02
2023-05-03T01:51:06.025Z,5.02
2023-05-03T01:53:33.856Z,5.00
2023-05-03T01:56:01.623Z,4.98
2023-05-03T01:58:31.153Z,4.95
2023-05-03T02:00:58.972Z,4.93
2023-05-03T02:03:26.758Z,4.91
2023-05-03T02:05:55.097Z,4.89
2023-05-03T02:08:22.885Z,4.88
2023-05-03T02:10:50.688Z,4.85
2023-05-03T02:13:18.971Z,4.83
2023-05-03T02:15:48.270Z,4.83
2023-05-03T02:18:16.436Z,4.80
2023-05-03T02:20:46.802Z,4.80
2023-05-03T02:23:15.087Z,4.80
2023-05-03T02:25:43.118Z,4.72
2023-05-03T02:28:11.171Z,4.81
2023-05-03T02:30:39.026Z,4.83
2023-05-03T02:33:08.384Z,4.72
2023-05-03T02:35:36.633Z,4.75
2023-05-03T02:38:04.464Z,4.74
2023-05-03T02:40:32.630Z,4.73
2023-05-03T02:43:00.745Z,4.71
2023-05-03T02:45:28.562Z,4.70
2023-05-03T02:47:56.474Z,4.67
2023-05-03T02:50:26.625Z,4.57
2023-05-03T02:52:54.553Z,4.66
2023-05-03T02:55:22.877Z,4.65
2023-05-03T02:57:51.039Z,4.64
2023-05-03T03:00:19.177Z,4.61
2023-05-03T03:02:49.747Z,4.51
2023-05-03T03:05:18.977Z,4.59
2023-05-03T03:07:48.196Z,4.58
2023-05-03T03:10:16.015Z,4.57
2023-05-03T03:12:47.379Z,4.56
2023-05-03T03:15:15.582Z,4.55
2023-05-03T03:17:43.408Z,4.53
2023-05-03T03:20:12.960Z,4.54
2023-05-03T03:22:41.275Z,4.53
2023-05-03T03:25:11.288Z,4.53
2023-05-03T03:27:39.922Z,4.34
2023-05-03T03:30:09.633Z,4.55
2023-05-03T03:32:37.648Z,4.53
2023-05-03T03:35:06.302Z,4.54
2023-05-03T03:37:34.235Z,4.53
2023-05-03T03:40:02.204Z,4.54
2023-05-03T03:42:31.834Z,4.56
2023-05-03T03:44:59.793Z,4.57
2023-05-03T03:47:27.983Z,4.53
2023-05-03T03:49:55.919Z,4.52
2023-05-03T03:52:23.893Z,4.61
2023-05-03T03:54:52.254Z,4.51
2023-05-03T03:57:20.323Z,4.62
2023-05-03T03:59:49.591Z,4.50
2023-05-03T04:02:17.493Z,4.68
2023-05-03T04:04:45.916Z,4.69
2023-05-03T04:07:13.869Z,4.66
2023-05-03T04:09:41.671Z,4.65
2023-05-03T04:12:09.818Z,4.74
2023-05-03T04:14:38.017Z,4.68
2023-05-03T04:17:07.540Z,4.49
2023-05-03T04:19:35.530Z,4.77
2023-05-03T04:22:03.585Z,4.82
2023-05-03T04:24:31.628Z,4.84
2023-05-03T04:27:02.226Z,4.86
2023-05-03T04:29:30.095Z,4.82
2023-05-03T04:31:58.021Z,4.83
2023-05-03T04:34:27.339Z,4.84
2023-05-03T04:36:55.266Z,5.02
2023-05-03T04:39:24.046Z,5.07
2023-05-03T04:41:52.195Z,5.08
2023-05-03T04:44:21.227Z,5.12
2023-05-03T04:46:51.154Z,5.17
2023-05-03T04:49:19.399Z,5.21
2023-05-03T04:51:48.601Z,5.26
2023-05-03T04:54:17.226Z,5.30
2023-05-03T04:56:45.179Z,5.34
2023-05-03T04:59:13.077Z,5.39
2023-05-03T05:01:41.004Z,5.43
2023-05-03T05:04:09.370Z,4.65
2023-05-03T05:06:37.393Z,5.52
2023-05-03T05:09:08.559Z,5.57
2023-05-03T05:11:37.360Z,5.29
2023-05-03T05:14:05.201Z,5.66
2023-05-03T05:16:33.231Z,5.69
2023-05-03T05:19:01.307Z,4.92
2023-05-03T05:21:29.331Z,5.51
2023-05-03T05:23:57.234Z,5.85
2023-05-03T05:26:27.318Z,5.84
2023-05-03T05:28:55.823Z,5.97
2023-05-03T05:31:24.340Z,5.97
2023-05-03T05:33:52.362Z,6.03
2023-05-03T05:36:20.701Z,5.71
2023-05-03T05:38:48.609Z,6.14
2023-05-03T05:41:17.812Z,5.89
2023-05-03T05:43:47.003Z,6.23
2023-05-03T05:46:15.060Z,6.26
2023-05-03T05:48:43.600Z,6.25
2023-05-03T05:51:11.993Z,6.29
2023-05-03T05:53:39.900Z,6.35
2023-05-03T05:56:08.866Z,6.36
2023-05-03T05:58:38.420Z,6.38
2023-05-03T06:01:08.635Z,6.49
2023-05-03T06:03:36.835Z,6.55
2023-05-03T06:06:04.974Z,6.52
2023-05-03T06:08:33.069Z,6.65
2023-05-03T06:11:01.345Z,6.71
2023-05-03T06:13:29.188Z,6.78
2023-05-03T06:15:57.217Z,6.81
2023-05-03T06:18:27.113Z,6.88
2023-05-03T06:20:54.922Z,6.93
2023-05-03T06:23:22.844Z,6.97
2023-05-03T06:25:50.797Z,6.95
2023-05-03T06:28:18.772Z,7.08
2023-05-03T06:30:50.302Z,7.13
2023-05-03T06:33:18.532Z,7.12
2023-05-03T06:35:48.312Z,7.22
2023-05-03T06:38:16.196Z,7.11
2023-05-03T06:40:45.765Z,7.32
2023-05-03T06:43:13.743Z,7.48
2023-05-03T06:45:43.678Z,6.82
2023-05-03T06:48:11.824Z,7.67
2023-05-03T06:50:40.515Z,7.75
2023-05-03T06:53:09.787Z,7.85
2023-05-03T06:55:37.875Z,7.26
2023-05-03T06:58:10.152Z,8.09
2023-05-03T07:00:39.262Z,8.26
2023-05-03T07:03:07.316Z,8.44
2023-05-03T07:05:35.425Z,8.61
2023-05-03T07:08:03.707Z,8.75
2023-05-03T07:10:36.593Z,9.08
2023-05-03T07:13:04.675Z,9.41
2023-05-03T07:15:32.588Z,10.02
2023-05-03T07:18:00.931Z,10.95
2023-05-03T07:20:29.417Z,11.83
2023-05-03T07:22:57.563Z,12.72
2023-05-03T07:25:25.587Z,13.54
2023-05-03T07:27:55.099Z,14.10
2023-05-03T07:30:23.345Z,14.58
2023-05-03T07:32:51.845Z,14.99
2023-05-03T07:35:19.996Z,15.36
2023-05-03T07:37:47.820Z,15.75
2023-05-03T07:40:15.916Z,15.98
2023-05-03T07:42:43.931Z,16.39
2023-05-03T07:45:13.446Z,16.76
2023-05-03T07:47:41.435Z,17.01
2023-05-03T07:50:09.838Z,17.06
2023-05-03T07:52:38.275Z,17.18
2023-05-03T07:55:07.339Z,17.15
2023-05-03T07:57:36.306Z,17.54
2023-05-03T08:00:06.158Z,17.49
2023-05-03T08:02:35.820Z,17.75
2023-05-03T08:05:05.546Z,17.93
2023-05-03T08:07:33.685Z,17.84
2023-05-03T08:10:02.727Z,17.87
2023-05-03T08:12:30.831Z,18.01
2023-05-03T08:14:58.660Z,18.26
2023-05-03T08:17:27.296Z,18.38
2023-05-03T08:19:57.932Z,18.50
2023-05-03T08:22:27.049Z,18.47
2023-05-03T08:24:56.618Z,18.31
2023-05-03T08:27:25.814Z,18.63
2023-05-03T08:29:53.761Z,18.78
2023-05-03T08:32:22.724Z,18.86
2023-05-03T08:34:51.616Z,19.00
2023-05-03T08:37:20.950Z,19.14
2023-05-03T08:39:49.030Z,19.32
2023-05-03T08:42:17.209Z,19.59
2023-05-03T08:44:49.522Z,19.54
2023-05-03T08:47:18.249Z,19.92
2023-05-03T08:49:46.318Z,19.97
2023-05-03T08:52:18.457Z,19.62
2023-05-03T08:54:49.362Z,19.64
2023-05-03T08:57:18.002Z,19.66
2023-05-03T08:59:49.753Z,19.76
2023-05-03T09:02:18.891Z,19.84
2023-05-03T09:04:47.355Z,19.90
2023-05-03T09:07:16.913Z,19.93
2023-05-03T09:09:47.117Z,19.51
2023-05-03T09:12:34.922Z,19.44
2023-05-03T09:15:03.096Z,19.69
2023-05-03T09:17:31.202Z,19.73
2023-05-03T09:20:00.252Z,20.05
2023-05-03T09:22:29.757Z,20.15
2023-05-03T09:24:59.301Z,19.88
2023-05-03T09:27:29.085Z,19.53
2023-05-03T09:29:56.973Z,19.58
2023-05-03T09:32:25.297Z,19.88
2023-05-03T09:35:09.669Z,19.91
2023-05-03T09:37:38.783Z,20.10
2023-05-03T09:40:10.407Z,20.22
2023-05-03T09:42:43.737Z,20.23
2023-05-03T09:45:12.197Z,20.15
2023-05-03T09:47:52.403Z,20.02
2023-05-03T09:50:20.778Z,20.16
2023-05-03T09:52:49.507Z,20.10
2023-05-03T09:55:18.092Z,19.74
2023-05-03T09:57:51.026Z,19.59
2023-05-03T10:00:20.735Z,19.42
2023-05-03T10:02:52.217Z,19.13
2023-05-03T10:05:22.544Z,18.98
2023-05-03T10:07:52.307Z,19.29
2023-05-03T10:10:21.296Z,19.52
2023-05-03T10:12:53.983Z,19.64
2023-05-03T10:15:23.790Z,19.19
2023-05-03T10:17:54.815Z,18.64
2023-05-03T10:20:28.795Z,18.69
2023-05-03T10:23:10.024Z,18.76
2023-05-03T10:25:39.195Z,19.02
2023-05-03T10:28:09.449Z,19.13
2023-05-03T10:30:38.564Z,18.77
2023-05-03T10:33:35.547Z,18.83
2023-05-03T10:36:07.685Z,19.22
2023-05-03T10:38:35.551Z,19.48
2023-05-03T10:41:03.850Z,19.64
2023-05-03T10:43:51.141Z,19.46
2023-05-03T10:46:35.188Z,19.13
2023-05-03T10:49:22.987Z,19.17
2023-05-03T10:51:51.145Z,18.78
2023-05-03T10:54:19.703Z,18.39
2023-05-03T10:56:56.276Z,18.54
2023-05-03T10:59:25.928Z,18.88
2023-05-03T11:01:54.556Z,18.87
2023-05-03T11:04:40.829Z,18.40
2023-05-03T11:07:10.203Z,18.07
2023-05-03T11:09:38.910Z,17.78
2023-05-03T11:12:08.744Z,17.87
2023-05-03T11:14:39.835Z,17.80
2023-05-03T11:17:07.988Z,17.58
2023-05-03T11:19:36.136Z,17.19
2023-05-03T11:22:04.062Z,16.79
2023-05-03T11:24:32.105Z,16.87
2023-05-03T11:27:00.241Z,16.68
2023-05-03T11:29:36.273Z,16.31
2023-05-03T11:32:11.015Z,15.11
2023-05-03T11:34:40.451Z,16.50
2023-05-03T11:37:09.667Z,16.71
2023-05-03T11:39:37.787Z,16.69
2023-05-03T11:42:06.409Z,16.45
2023-05-03T11:44:35.941Z,16.02
2023-05-03T11:47:05.811Z,16.04
2023-05-03T11:49:33.929Z,15.81
2023-05-03T11:52:01.938Z,15.62
2023-05-03T11:54:31.189Z,15.49
2023-05-03T11:57:00.930Z,15.83
2023-05-03T11:59:36.529Z,16.03
2023-05-03T12:02:07.767Z,15.79
2023-05-03T12:04:36.289Z,15.93
2023-05-03T12:07:05.679Z,16.07
2023-05-03T12:09:34.150Z,15.96
2023-05-03T12:12:05.686Z,15.82
2023-05-03T12:14:57.743Z,15.53
2023-05-03T12:17:38.606Z,14.85
2023-05-03T12:22:58.638Z,14.27
2023-05-03T12:25:29.037Z,13.86
2023-05-03T12:28:18.592Z,14.55
2023-05-03T12:30:48.337Z,14.56
2023-05-03T12:33:22.005Z,14.66
2023-05-03T12:35:53.316Z,15.68
2023-05-03T12:38:23.946Z,16.01
2023-05-03T12:40:53.323Z,16.45
2023-05-03T12:46:01.462Z,16.54
2023-05-03T12:48:39.009Z,15.99
2023-05-03T12:51:19.573Z,15.50
2023-05-03T12:53:54.540Z,15.46
2023-05-03T12:56:24.863Z,16.81
2023-05-03T12:59:07.674Z,18.17
2023-05-03T13:06:46.998Z,19.60
2023-05-03T13:09:21.285Z,18.98
2023-05-03T13:11:52.816Z,18.50
2023-05-03T13:14:21.095Z,18.36
2023-05-03T13:16:51.007Z,18.37
2023-05-03T13:19:20.228Z,18.28
2023-05-03T13:21:49.497Z,17.22
2023-05-03T13:24:17.594Z,18.40
2023-05-03T13:26:47.539Z,19.53
2023-05-03T13:29:17.687Z,19.82
2023-05-03T13:31:45.566Z,19.49
2023-05-03T13:34:13.613Z,18.93
2023-05-03T13:36:43.020Z,20.59
2023-05-03T13:39:11.017Z,21.17
2023-05-03T13:41:40.825Z,22.25
2023-05-03T13:44:09.333Z,23.33
2023-05-03T13:46:38.465Z,24.46
2023-05-03T13:49:07.385Z,24.60
2023-05-03T13:51:36.436Z,23.11
2023-05-03T13:54:07.470Z,21.86
2023-05-03T13:56:35.809Z,20.85
2023-05-03T13:59:04.422Z,19.65
2023-05-03T14:01:32.455Z,18.62
2023-05-03T14:04:00.599Z,17.40
2023-05-03T14:06:29.902Z,16.22
2023-05-03T14:09:01.661Z,15.31
2023-05-03T14:11:32.024Z,14.65
2023-05-03T14:14:00.131Z,14.15
2023-05-03T14:18:59.305Z,14.55
2023-05-03T14:21:27.247Z,15.55
2023-05-03T14:23:56.552Z,15.47
2023-05-03T14:26:26.136Z,15.98
2023-05-03T14:28:55.493Z,15.84
2023-05-03T14:31:23.389Z,15.51
2023-05-03T14:33:51.459Z,15.22
2023-05-03T14:36:19.306Z,15.14
2023-05-03T14:38:47.184Z,14.85
2023-05-03T14:41:15.417Z,14.67
2023-05-03T14:43:43.278Z,14.37
2023-05-03T14:46:12.510Z,14.27
2023-05-03T14:48:40.507Z,14.30
2023-05-03T14:51:08.314Z,14.88
2023-05-03T14:53:36.744Z,16.09
2023-05-03T14:56:05.066Z,17.07
2023-05-03T14:58:34.164Z,17.17
2023-05-03T15:01:02.465Z,17.57
2023-05-03T15:03:32.032Z,17.54
2023-05-03T15:06:00.347Z,17.24
2023-05-03T15:08:28.825Z,17.40
2023-05-03T15:10:56.861Z,17.27
2023-05-03T15:13:25.222Z,16.77
2023-05-03T15:15:53.346Z,16.23
2023-05-03T15:18:21.411Z,15.82
2023-05-03T15:20:50.683Z,15.14
2023-05-03T15:23:18.657Z,14.42
2023-05-03T15:25:46.673Z,13.81
2023-05-03T15:28:14.501Z,13.17
2023-05-03T15:30:42.452Z,12.64
2023-05-03T15:33:11.497Z,11.92
2023-05-03T15:35:41.876Z,11.54
2023-05-03T15:38:11.149Z,11.41
2023-05-03T15:40:39.166Z,11.11
2023-05-03T15:43:08.057Z,10.80
2023-05-03T15:45:36.366Z,10.78
2023-05-03T15:48:04.857Z,10.63
2023-05-03T15:50:32.733Z,10.58
2023-05-03T15:53:00.627Z,10.51
2023-05-03T15:55:29.908Z,10.32
2023-05-03T15:57:58.628Z,10.14
2023-05-03T16:00:27.805Z,10.05
2023-05-03T16:02:57.455Z,10.03
2023-05-03T16:05:25.402Z,10.67
2023-05-03T16:07:53.480Z,11.82
2023-05-03T16:10:23.501Z,12.07
2023-05-03T16:12:54.094Z,11.83
2023-05-03T16:15:21.941Z,11.38
2023-05-03T16:17:50.212Z,11.01
2023-05-03T16:20:18.299Z,10.62
2023-05-03T16:22:48.195Z,10.43
2023-05-03T16:25:16.744Z,10.17
2023-05-03T16:27:44.680Z,9.94
2023-05-03T16:30:15.250Z,9.58
2023-05-03T16:32:44.074Z,9.09
2023-05-03T16:35:13.701Z,7.89
2023-05-03T16:37:41.990Z,8.75
2023-05-03T16:40:11.711Z,8.58
2023-05-03T16:42:40.286Z,8.51
2023-05-03T16:45:10.749Z,9.18
2023-05-03T16:47:40.448Z,9.90
2023-05-03T16:50:09.526Z,10.41
2023-05-03T16:52:40.012Z,10.79
2023-05-03T16:55:09.211Z,10.98
2023-05-03T16:57:37.199Z,10.90
2023-05-03T17:00:09.316Z,11.13
2023-05-03T17:02:40.912Z,11.28
2023-05-03T17:05:10.626Z,11.57
2023-05-03T17:07:38.629Z,10.93
2023-05-03T17:10:08.055Z,10.37
2023-05-03T17:12:36.214Z,9.54
2023-05-03T17:15:04.495Z,9.64
2023-05-03T17:17:33.600Z,8.82
2023-05-03T17:20:03.204Z,8.72
2023-05-03T17:22:31.508Z,8.56
2023-05-03T17:24:59.725Z,8.28
2023-05-03T17:27:27.597Z,8.11
2023-05-03T17:29:56.948Z,7.95
2023-05-03T17:32:26.866Z,7.83
2023-05-03T17:34:54.715Z,7.79
2023-05-03T17:37:24.068Z,7.73
2023-05-03T17:39:52.552Z,7.74
2023-05-03T17:42:20.736Z,7.88
2023-05-03T17:44:51.764Z,8.01
2023-05-03T17:47:20.925Z,8.02
2023-05-03T17:49:48.779Z,8.00
2023-05-03T17:52:16.725Z,7.95
2023-05-03T17:54:46.293Z,7.89
2023-05-03T17:57:14.521Z,7.71
2023-05-03T17:59:42.357Z,7.55
2023-05-03T18:02:10.438Z,7.52
2023-05-03T18:04:39.690Z,7.41
2023-05-03T18:07:07.578Z,7.33
2023-05-03T18:09:36.523Z,7.23
2023-05-03T18:12:07.578Z,7.20
2023-05-03T18:14:36.665Z,7.12
2023-05-03T18:17:04.566Z,6.96
2023-05-03T18:19:32.547Z,6.72
2023-05-03T18:22:00.817Z,6.64
2023-05-03T18:24:28.635Z,6.69
2023-05-03T18:26:56.447Z,6.69
2023-05-03T18:29:26.015Z,6.55
2023-05-03T18:31:54.899Z,6.53
2023-05-03T18:34:22.866Z,6.54
2023-05-03T18:36:51.007Z,6.42
2023-05-03T18:39:18.822Z,6.34
2023-05-03T18:41:46.657Z,6.11
2023-05-03T18:44:14.617Z,6.22
2023-05-03T18:46:44.613Z,6.16
2023-05-03T18:49:12.969Z,6.07
2023-05-03T18:51:41.254Z,5.84
2023-05-03T18:54:09.125Z,5.89
2023-05-03T18:56:36.962Z,5.79
2023-05-03T18:59:05.347Z,5.68
2023-05-03T19:01:33.720Z,5.52
2023-05-03T19:04:04.487Z,5.54
2023-05-03T19:06:32.562Z,5.43
2023-05-03T19:09:00.374Z,5.33
2023-05-03T19:11:28.190Z,5.23
2023-05-03T19:13:58.872Z,5.12
2023-05-03T19:16:30.434Z,5.21
2023-05-03T19:18:58.841Z,5.17
2023-05-03T19:21:30.243Z,5.09
2023-05-03T19:24:00.381Z,5.00
2023-05-03T19:26:30.016Z,4.95
2023-05-03T19:28:58.112Z,4.92
2023-05-03T19:31:26.056Z,4.88
2023-05-03T19:33:54.297Z,4.81
2023-05-03T19:36:22.162Z,4.83
2023-05-03T19:38:51.450Z,3.87
2023-05-03T19:41:19.592Z,4.87
2023-05-03T19:43:47.547Z,4.87
2023-05-03T19:46:16.843Z,4.85
2023-05-03T19:48:45.096Z,4.82
2023-05-03T19:51:14.793Z,4.32
2023-05-03T19:53:42.702Z,4.71
2023-05-03T19:56:13.450Z,4.69
2023-05-03T19:58:41.303Z,4.65
2023-05-03T20:01:09.304Z,4.54
2023-05-03T20:03:37.960Z,4.61
2023-05-03T20:06:06.296Z,4.46
2023-05-03T20:08:36.020Z,4.42
2023-05-03T20:11:04.001Z,4.50
2023-05-03T20:13:33.270Z,4.54
2023-05-03T20:16:04.899Z,4.51
2023-05-03T20:18:32.893Z,4.51
2023-05-03T20:21:00.832Z,4.51
2023-05-03T20:23:28.728Z,4.43
2023-05-03T20:25:57.093Z,4.41
2023-05-03T20:28:25.160Z,4.50
2023-05-03T20:30:54.396Z,4.47
2023-05-03T20:33:22.338Z,4.46
2023-05-03T20:35:50.163Z,4.45
2023-05-03T20:38:18.013Z,4.49
2023-05-03T20:40:45.998Z,4.51
2023-05-03T20:43:14.119Z,4.57
2023-05-03T20:45:42.004Z,4.66
2023-05-03T20:48:11.602Z,4.68
2023-05-03T20:50:39.563Z,4.69
2023-05-03T20:53:07.466Z,4.70
2023-05-03T20:55:35.432Z,4.71
2023-05-03T20:58:03.944Z,4.71
2023-05-03T21:00:33.277Z,4.73
2023-05-03T21:03:01.228Z,4.74
2023-05-03T21:05:30.684Z,4.78
2023-05-03T21:07:58.557Z,4.82
2023-05-03T21:10:26.787Z,4.03
2023-05-03T21:12:54.707Z,4.86
2023-05-03T21:15:22.658Z,4.86
2023-05-03T21:17:51.041Z,4.81
2023-05-03T21:20:19.083Z,4.63
2023-05-03T21:22:48.423Z,4.74
2023-05-03T21:25:16.377Z,4.75
2023-05-03T21:27:44.275Z,4.77
2023-05-03T21:30:13.704Z,4.74
2023-05-03T21:32:41.663Z,4.70
2023-05-03T21:35:10.706Z,4.69
2023-05-03T21:37:38.657Z,4.66
2023-05-03T21:40:09.440Z,4.65
2023-05-03T21:42:37.615Z,4.67
2023-05-03T21:45:06.357Z,4.64
2023-05-03T21:47:34.336Z,4.75
2023-05-03T21:50:02.840Z,4.33
2023-05-03T21:52:30.842Z,4.76
2023-05-03T21:54:59.267Z,4.73
2023-05-03T21:57:29.178Z,4.77
2023-05-03T21:59:58.312Z,4.71
2023-05-03T22:02:26.531Z,4.68
2023-05-03T22:04:54.538Z,4.65
2023-05-03T22:07:22.383Z,4.57
2023-05-03T22:09:50.557Z,4.61
2023-05-03T22:12:24.137Z,4.60
2023-05-03T22:14:54.295Z,4.32
2023-05-03T22:17:22.545Z,4.42
2023-05-03T22:19:50.540Z,4.37
2023-05-03T22:22:18.465Z,4.31
2023-05-03T22:24:46.628Z,4.22
2023-05-03T22:27:14.797Z,4.26
2023-05-03T22:29:42.872Z,4.07
2023-05-03T22:32:12.257Z,4.12
2023-05-03T22:34:40.220Z,4.09
2023-05-03T22:37:08.117Z,4.06
2023-05-03T22:39:36.174Z,4.07
2023-05-03T22:42:04.405Z,4.06
2023-05-03T22:44:32.584Z,3.97
2023-05-03T22:47:00.714Z,3.97
2023-05-03T22:49:29.973Z,3.86
2023-05-03T22:51:57.881Z,3.90
2023-05-03T22:54:26.247Z,3.85
2023-05-03T22:56:54.671Z,3.79
2023-05-03T22:59:22.527Z,3.77
2023-05-03T23:01:50.579Z,3.73
2023-05-03T23:04:18.548Z,3.55
2023-05-03T23:06:48.141Z,3.64
2023-05-03T23:09:15.966Z,3.60
2023-05-03T23:11:43.906Z,3.48
2023-05-03T23:14:11.747Z,3.49
2023-05-03T23:16:39.943Z,3.41
2023-05-03T23:19:08.350Z,3.39
2023-05-03T23:21:36.333Z,3.39
2023-05-03T23:24:06.521Z,3.35
2023-05-03T23:26:34.823Z,3.39
2023-05-03T23:29:03.318Z,3.43
2023-05-03T23:31:32.523Z,3.32
2023-05-03T23:34:05.067Z,3.38
2023-05-03T23:36:34.249Z,3.24
2023-05-03T23:39:02.143Z,3.33
2023-05-03T23:41:31.411Z,3.29
2023-05-03T23:43:59.310Z,3.30
2023-05-03T23:46:27.164Z,3.24
2023-05-03T23:48:55.099Z,3.18
2023-05-03T23:51:23.213Z,3.17
2023-05-03T23:53:51.031Z,3.22
2023-05-03T23:56:18.941Z,3.24
2023-05-03T23:58:48.294Z,3.16
